createdAt,value
2019-03-28T00:00:30.433Z,1023.42
2019-03-28T00:01:30.426Z,1023.31
2019-03-28T00:02:30.421Z,1023.35
2019-03-28T00:03:30.404Z,1023.44
2019-03-28T00:04:30.402Z,1023.38
2019-03-28T00:05:30.391Z,1023.42
2019-03-28T00:06:30.375Z,1023.41
2019-03-28T00:07:30.365Z,1023.44
2019-03-28T00:08:30.354Z,1023.39
2019-03-28T00:09:30.348Z,1023.33
2019-03-28T00:10:30.331Z,1023.41
2019-03-28T00:11:30.329Z,1023.42
2019-03-28T00:12:30.309Z,1023.42
2019-03-28T00:13:30.409Z,1023.37
2019-03-28T00:14:30.302Z,1023.44
2019-03-28T00:15:30.287Z,1023.42
2019-03-28T00:16:30.270Z,1023.41
2019-03-28T00:17:30.269Z,1023.40
2019-03-28T00:18:30.245Z,1023.39
2019-03-28T00:19:30.241Z,1023.34
2019-03-28T00:20:30.224Z,1023.34
2019-03-28T00:21:30.217Z,1023.37
2019-03-28T00:22:30.204Z,1023.32
2019-03-28T00:23:30.228Z,1023.31
2019-03-28T00:24:30.182Z,1023.32
2019-03-28T00:25:30.174Z,1023.34
2019-03-28T00:26:30.866Z,1023.35
2019-03-28T00:27:30.158Z,1023.33
2019-03-28T00:28:30.147Z,1023.36
2019-03-28T00:29:30.136Z,1023.31
2019-03-28T00:30:30.124Z,1023.32
2019-03-28T00:31:30.118Z,1023.33
2019-03-28T00:32:30.120Z,1023.33
2019-03-28T00:33:30.088Z,1023.32
2019-03-28T00:34:30.079Z,1023.33
2019-03-28T00:35:30.074Z,1023.34
2019-03-28T00:36:30.058Z,1023.32
2019-03-28T00:37:30.059Z,1023.33
2019-03-28T00:38:30.046Z,1023.29
2019-03-28T00:39:30.032Z,1023.32
2019-03-28T00:40:30.291Z,1023.29
2019-03-28T00:41:30.008Z,1023.30
2019-03-28T00:42:29.994Z,1023.30
2019-03-28T00:43:29.986Z,1023.28
2019-03-28T00:44:29.973Z,1023.28
2019-03-28T00:45:29.971Z,1023.31
2019-03-28T00:46:29.954Z,1023.27
2019-03-28T00:47:29.946Z,1023.30
2019-03-28T00:48:29.928Z,1023.29
2019-03-28T00:49:29.924Z,1023.27
2019-03-28T00:50:32.847Z,1023.30
2019-03-28T00:51:29.904Z,1023.27
2019-03-28T00:52:29.909Z,1023.33
2019-03-28T00:53:29.878Z,1023.30
2019-03-28T00:54:29.863Z,1023.31
2019-03-28T00:55:29.870Z,1023.34
2019-03-28T00:56:42.709Z,1023.34
2019-03-28T00:57:30.831Z,1023.26
2019-03-28T00:58:29.822Z,1023.29
2019-03-28T00:59:29.808Z,1023.27
2019-03-28T01:00:29.812Z,1023.28
2019-03-28T01:01:29.794Z,1023.29
2019-03-28T01:02:29.780Z,1023.26
2019-03-28T01:03:29.777Z,1023.32
2019-03-28T01:04:29.759Z,1023.30
2019-03-28T01:05:29.758Z,1023.30
2019-03-28T01:06:29.736Z,1023.33
2019-03-28T01:07:29.735Z,1023.33
2019-03-28T01:08:29.719Z,1023.34
2019-03-28T01:09:29.707Z,1023.32
2019-03-28T01:10:29.691Z,1023.35
2019-03-28T01:11:29.691Z,1023.34
2019-03-28T01:12:29.682Z,1023.30
2019-03-28T01:13:29.665Z,1023.33
2019-03-28T01:14:29.656Z,1023.29
2019-03-28T01:15:29.647Z,1023.31
2019-03-28T01:16:29.632Z,1023.29
2019-03-28T01:17:30.246Z,1023.28
2019-03-28T01:18:29.612Z,1023.29
2019-03-28T01:19:29.604Z,1023.28
2019-03-28T01:20:29.588Z,1023.26
2019-03-28T01:21:29.586Z,1023.27
2019-03-28T01:22:29.570Z,1023.25
2019-03-28T01:23:29.562Z,1023.26
2019-03-28T01:24:29.542Z,1023.29
2019-03-28T01:25:29.549Z,1023.24
2019-03-28T01:26:29.527Z,1023.26
2019-03-28T01:27:29.522Z,1023.28
2019-03-28T01:28:29.513Z,1023.30
2019-03-28T01:29:29.501Z,1023.30
2019-03-28T01:30:29.487Z,1023.29
2019-03-28T01:31:29.480Z,1023.26
2019-03-28T01:32:29.459Z,1023.30
2019-03-28T01:33:29.452Z,1023.28
2019-03-28T01:34:29.439Z,1023.29
2019-03-28T01:35:29.457Z,1023.25
2019-03-28T01:36:29.424Z,1023.31
2019-03-28T01:37:29.512Z,1023.32
2019-03-28T01:38:29.401Z,1023.29
2019-03-28T01:39:29.385Z,1023.22
2019-03-28T01:40:29.379Z,1023.28
2019-03-28T01:41:29.368Z,1023.22
2019-03-28T01:42:29.354Z,1023.30
2019-03-28T01:43:29.358Z,1023.24
2019-03-28T01:44:29.335Z,1023.28
2019-03-28T01:45:29.322Z,1023.27
2019-03-28T01:46:29.314Z,1023.23
2019-03-28T01:47:29.311Z,1023.22
2019-03-28T01:48:29.304Z,1023.30
2019-03-28T01:49:29.280Z,1023.33
2019-03-28T01:50:29.269Z,1023.26
2019-03-28T01:51:29.260Z,1023.29
2019-03-28T01:52:29.258Z,1023.29
2019-03-28T01:53:29.248Z,1023.27
2019-03-28T01:54:29.338Z,1023.28
2019-03-28T01:55:29.223Z,1023.30
2019-03-28T01:56:29.212Z,1023.34
2019-03-28T01:57:29.200Z,1023.29
2019-03-28T01:58:29.184Z,1023.29
2019-03-28T01:59:29.184Z,1023.28
2019-03-28T02:00:29.166Z,1023.30
2019-03-28T02:01:29.158Z,1023.29
2019-03-28T02:02:29.140Z,1023.32
2019-03-28T02:03:29.134Z,1023.30
2019-03-28T02:04:29.117Z,1023.34
2019-03-28T02:05:29.117Z,1023.34
2019-03-28T02:06:29.106Z,1023.33
2019-03-28T02:07:29.095Z,1023.29
2019-03-28T02:08:29.082Z,1023.29
2019-03-28T02:09:29.076Z,1023.27
2019-03-28T02:10:29.058Z,1023.26
2019-03-28T02:11:29.062Z,1023.31
2019-03-28T02:12:29.042Z,1023.29
2019-03-28T02:13:29.030Z,1023.29
2019-03-28T02:14:29.012Z,1023.27
2019-03-28T02:15:29.018Z,1023.30
2019-03-28T02:16:29.003Z,1023.31
2019-03-28T02:17:28.998Z,1023.32
2019-03-28T02:18:29.268Z,1023.30
2019-03-28T02:19:28.965Z,1023.32
2019-03-28T02:20:28.954Z,1023.32
2019-03-28T02:21:28.942Z,1023.33
2019-03-28T02:22:28.940Z,1023.33
2019-03-28T02:23:28.924Z,1023.36
2019-03-28T02:24:28.912Z,1023.33
2019-03-28T02:25:28.904Z,1023.34
2019-03-28T02:26:28.888Z,1023.36
2019-03-28T02:27:28.878Z,1023.37
2019-03-28T02:28:28.878Z,1023.38
2019-03-28T02:29:28.862Z,1023.38
2019-03-28T02:30:28.849Z,1023.40
2019-03-28T02:31:28.840Z,1023.42
2019-03-28T02:32:28.831Z,1023.43
2019-03-28T02:33:28.815Z,1023.37
2019-03-28T02:34:28.810Z,1023.41
2019-03-28T02:35:28.808Z,1023.41
2019-03-28T02:36:28.787Z,1023.37
2019-03-28T02:37:28.791Z,1023.37
2019-03-28T02:38:28.768Z,1023.37
2019-03-28T02:39:28.757Z,1023.37
2019-03-28T02:40:28.749Z,1023.37
2019-03-28T02:41:28.742Z,1023.43
2019-03-28T02:42:28.719Z,1023.37
2019-03-28T02:43:28.708Z,1023.43
2019-03-28T02:44:28.695Z,1023.45
2019-03-28T02:45:29.909Z,1023.43
2019-03-28T02:46:28.673Z,1023.45
2019-03-28T02:47:28.668Z,1023.46
2019-03-28T02:48:28.658Z,1023.46
2019-03-28T02:49:28.646Z,1023.44
2019-03-28T02:50:28.637Z,1023.43
2019-03-28T02:51:29.670Z,1023.45
2019-03-28T02:52:28.619Z,1023.46
2019-03-28T02:53:28.603Z,1023.47
2019-03-28T02:54:28.647Z,1023.51
2019-03-28T02:55:28.594Z,1023.46
2019-03-28T02:56:28.571Z,1023.47
2019-03-28T02:57:41.140Z,1023.44
2019-03-28T02:58:29.551Z,1023.48
2019-03-28T02:59:28.782Z,1023.51
2019-03-28T03:00:28.529Z,1023.51
2019-03-28T03:01:30.247Z,1023.51
2019-03-28T03:02:28.510Z,1023.47
2019-03-28T03:03:28.496Z,1023.54
2019-03-28T03:04:28.482Z,1023.50
2019-03-28T03:05:28.474Z,1023.47
2019-03-28T03:06:28.469Z,1023.53
2019-03-28T03:07:28.464Z,1023.44
2019-03-28T03:08:28.448Z,1023.48
2019-03-28T03:09:28.434Z,1023.49
2019-03-28T03:10:28.421Z,1023.49
2019-03-28T03:11:28.416Z,1023.49
2019-03-28T03:12:28.415Z,1023.51
2019-03-28T03:13:28.389Z,1023.49
2019-03-28T03:14:28.387Z,1023.49
2019-03-28T03:15:29.159Z,1023.52
2019-03-28T03:16:28.366Z,1023.49
2019-03-28T03:17:28.352Z,1023.54
2019-03-28T03:18:28.345Z,1023.52
2019-03-28T03:19:28.337Z,1023.50
2019-03-28T03:20:28.327Z,1023.49
2019-03-28T03:21:28.309Z,1023.50
2019-03-28T03:22:28.749Z,1023.47
2019-03-28T03:23:28.286Z,1023.51
2019-03-28T03:24:28.279Z,1023.46
2019-03-28T03:25:28.280Z,1023.51
2019-03-28T03:26:28.257Z,1023.49
2019-03-28T03:27:28.241Z,1023.48
2019-03-28T03:28:28.252Z,1023.49
2019-03-28T03:29:28.229Z,1023.52
2019-03-28T03:30:28.408Z,1023.50
2019-03-28T03:31:28.214Z,1023.55
2019-03-28T03:32:28.191Z,1023.57
2019-03-28T03:33:28.189Z,1023.56
2019-03-28T03:34:28.170Z,1023.56
2019-03-28T03:35:28.576Z,1023.57
2019-03-28T03:36:28.151Z,1023.57
2019-03-28T03:37:28.144Z,1023.54
2019-03-28T03:38:28.125Z,1023.57
2019-03-28T03:39:28.120Z,1023.57
2019-03-28T03:40:28.115Z,1023.59
2019-03-28T03:41:28.091Z,1023.57
2019-03-28T03:42:28.091Z,1023.56
2019-03-28T03:43:28.073Z,1023.53
2019-03-28T03:44:28.065Z,1023.55
2019-03-28T03:45:28.057Z,1023.49
2019-03-28T03:46:28.045Z,1023.52
2019-03-28T03:47:28.036Z,1023.50
2019-03-28T03:48:28.023Z,1023.48
2019-03-28T03:49:28.011Z,1023.51
2019-03-28T03:50:28.011Z,1023.49
2019-03-28T03:51:27.990Z,1023.56
2019-03-28T03:52:27.982Z,1023.50
2019-03-28T03:53:27.978Z,1023.58
2019-03-28T03:54:27.981Z,1023.52
2019-03-28T03:55:27.963Z,1023.53
2019-03-28T03:56:27.941Z,1023.60
2019-03-28T03:57:27.931Z,1023.55
2019-03-28T03:58:27.925Z,1023.56
2019-03-28T03:59:27.908Z,1023.54
2019-03-28T04:00:27.901Z,1023.56
2019-03-28T04:01:27.889Z,1023.58
2019-03-28T04:02:27.872Z,1023.54
2019-03-28T04:03:27.865Z,1023.58
2019-03-28T04:04:27.851Z,1023.54
2019-03-28T04:05:27.852Z,1023.59
2019-03-28T04:06:27.848Z,1023.60
2019-03-28T04:07:27.826Z,1023.62
2019-03-28T04:08:27.810Z,1023.63
2019-03-28T04:09:27.805Z,1023.58
2019-03-28T04:10:27.793Z,1023.62
2019-03-28T04:11:27.790Z,1023.64
2019-03-28T04:12:27.771Z,1023.61
2019-03-28T04:13:27.762Z,1023.58
2019-03-28T04:14:27.751Z,1023.58
2019-03-28T04:15:27.739Z,1023.59
2019-03-28T04:16:27.726Z,1023.58
2019-03-28T04:17:27.722Z,1023.54
2019-03-28T04:18:27.735Z,1023.61
2019-03-28T04:19:27.698Z,1023.61
2019-03-28T04:20:27.689Z,1023.59
2019-03-28T04:21:27.685Z,1023.62
2019-03-28T04:22:27.669Z,1023.63
2019-03-28T04:23:27.663Z,1023.65
2019-03-28T04:24:27.664Z,1023.66
2019-03-28T04:25:27.629Z,1023.66
2019-03-28T04:26:27.619Z,1023.65
2019-03-28T04:27:27.615Z,1023.73
2019-03-28T04:28:32.270Z,1023.72
2019-03-28T04:29:28.584Z,1023.63
2019-03-28T04:30:27.584Z,1023.66
2019-03-28T04:31:27.564Z,1023.68
2019-03-28T04:32:27.562Z,1023.70
2019-03-28T04:33:27.543Z,1023.67
2019-03-28T04:34:27.537Z,1023.75
2019-03-28T04:35:27.522Z,1023.74
2019-03-28T04:36:27.506Z,1023.77
2019-03-28T04:37:27.499Z,1023.81
2019-03-28T04:38:27.494Z,1023.76
2019-03-28T04:39:27.482Z,1023.82
2019-03-28T04:40:27.479Z,1023.82
2019-03-28T04:41:27.463Z,1023.83
2019-03-28T04:42:27.442Z,1023.84
2019-03-28T04:43:27.436Z,1023.87
2019-03-28T04:44:27.429Z,1023.84
2019-03-28T04:45:27.429Z,1023.86
2019-03-28T04:46:27.410Z,1023.86
2019-03-28T04:47:27.390Z,1023.89
2019-03-28T04:48:27.466Z,1023.89
2019-03-28T04:49:27.392Z,1023.97
2019-03-28T04:50:27.430Z,1023.93
2019-03-28T04:51:27.505Z,1023.92
2019-03-28T04:52:27.366Z,1023.89
2019-03-28T04:53:29.580Z,1023.88
2019-03-28T04:54:27.321Z,1023.91
2019-03-28T04:55:27.314Z,1023.98
2019-03-28T04:56:27.297Z,1023.92
2019-03-28T04:57:27.294Z,1023.92
2019-03-28T04:58:27.282Z,1023.96
2019-03-28T04:59:27.267Z,1023.92
2019-03-28T05:00:27.256Z,1023.97
2019-03-28T05:01:27.251Z,1023.96
2019-03-28T05:02:27.245Z,1023.93
2019-03-28T05:03:27.229Z,1023.96
2019-03-28T05:04:27.217Z,1023.96
2019-03-28T05:05:27.204Z,1023.96
2019-03-28T05:06:27.188Z,1023.97
2019-03-28T05:07:27.183Z,1023.96
2019-03-28T05:08:27.184Z,1023.97
2019-03-28T05:09:27.162Z,1023.96
2019-03-28T05:10:27.146Z,1023.98
2019-03-28T05:11:27.138Z,1023.96
2019-03-28T05:12:27.133Z,1023.99
2019-03-28T05:13:27.120Z,1024.01
2019-03-28T05:14:27.123Z,1024.00
2019-03-28T05:15:27.098Z,1024.00
2019-03-28T05:16:27.088Z,1024.02
2019-03-28T05:17:27.080Z,1024.07
2019-03-28T05:18:27.081Z,1024.05
2019-03-28T05:19:27.062Z,1024.04
2019-03-28T05:20:27.061Z,1024.08
2019-03-28T05:21:27.036Z,1024.09
2019-03-28T05:22:27.024Z,1024.08
2019-03-28T05:23:27.012Z,1024.08
2019-03-28T05:24:27.008Z,1024.07
2019-03-28T05:25:27.007Z,1024.09
2019-03-28T05:26:26.982Z,1024.12
2019-03-28T05:27:26.980Z,1024.14
2019-03-28T05:28:26.958Z,1024.15
2019-03-28T05:29:26.952Z,1024.12
2019-03-28T05:30:26.942Z,1024.16
2019-03-28T05:31:26.940Z,1024.15
2019-03-28T05:32:26.921Z,1024.13
2019-03-28T05:33:26.909Z,1024.11
2019-03-28T05:34:26.896Z,1024.17
2019-03-28T05:35:26.900Z,1024.13
2019-03-28T05:36:26.876Z,1024.17
2019-03-28T05:37:26.868Z,1024.18
2019-03-28T05:38:26.860Z,1024.18
2019-03-28T05:39:26.848Z,1024.20
2019-03-28T05:40:26.828Z,1024.22
2019-03-28T05:41:26.838Z,1024.22
2019-03-28T05:42:26.822Z,1024.21
2019-03-28T05:43:26.811Z,1024.18
2019-03-28T05:44:26.788Z,1024.22
2019-03-28T05:45:26.784Z,1024.19
2019-03-28T05:46:26.771Z,1024.22
2019-03-28T05:47:26.765Z,1024.27
2019-03-28T05:48:26.754Z,1024.29
2019-03-28T05:49:26.742Z,1024.26
2019-03-28T05:50:26.730Z,1024.30
2019-03-28T05:51:26.720Z,1024.30
2019-03-28T05:52:26.710Z,1024.29
2019-03-28T05:53:26.699Z,1024.32
2019-03-28T05:54:26.699Z,1024.31
2019-03-28T05:55:26.700Z,1024.29
2019-03-28T05:56:26.670Z,1024.34
2019-03-28T05:57:26.654Z,1024.33
2019-03-28T05:58:26.652Z,1024.34
2019-03-28T05:59:26.632Z,1024.35
2019-03-28T06:00:26.631Z,1024.32
2019-03-28T06:01:26.610Z,1024.39
2019-03-28T06:02:26.604Z,1024.35
2019-03-28T06:03:26.594Z,1024.39
2019-03-28T06:04:26.582Z,1024.40
2019-03-28T06:05:26.575Z,1024.40
2019-03-28T06:06:26.568Z,1024.36
2019-03-28T06:07:26.553Z,1024.45
2019-03-28T06:08:26.540Z,1024.44
2019-03-28T06:09:26.530Z,1024.43
2019-03-28T06:10:26.519Z,1024.43
2019-03-28T06:11:26.532Z,1024.47
2019-03-28T06:12:26.500Z,1024.49
2019-03-28T06:13:26.484Z,1024.52
2019-03-28T06:14:26.477Z,1024.52
2019-03-28T06:15:26.469Z,1024.56
2019-03-28T06:16:26.460Z,1024.56
2019-03-28T06:17:26.448Z,1024.61
2019-03-28T06:18:26.438Z,1024.64
2019-03-28T06:19:26.424Z,1024.59
2019-03-28T06:20:26.414Z,1024.63
2019-03-28T06:21:26.412Z,1024.67
2019-03-28T06:22:26.394Z,1024.65
2019-03-28T06:23:26.386Z,1024.64
2019-03-28T06:24:26.372Z,1024.66
2019-03-28T06:25:26.358Z,1024.69
2019-03-28T06:26:26.351Z,1024.71
2019-03-28T06:27:26.341Z,1024.72
2019-03-28T06:28:26.332Z,1024.74
2019-03-28T06:29:26.321Z,1024.75
2019-03-28T06:30:26.314Z,1024.73
2019-03-28T06:31:26.299Z,1024.75
2019-03-28T06:32:26.297Z,1024.75
2019-03-28T06:33:26.279Z,1024.79
2019-03-28T06:34:26.558Z,1024.83
2019-03-28T06:35:26.252Z,1024.81
2019-03-28T06:36:26.780Z,1024.86
2019-03-28T06:37:26.232Z,1024.80
2019-03-28T06:38:26.222Z,1024.88
2019-03-28T06:39:26.214Z,1024.87
2019-03-28T06:40:26.200Z,1024.89
2019-03-28T06:41:26.192Z,1024.88
2019-03-28T06:42:26.174Z,1024.84
2019-03-28T06:43:26.170Z,1024.91
2019-03-28T06:44:26.151Z,1024.87
2019-03-28T06:45:26.154Z,1024.89
2019-03-28T06:46:26.127Z,1024.90
2019-03-28T06:47:26.126Z,1024.91
2019-03-28T06:48:26.113Z,1024.87
2019-03-28T06:49:26.110Z,1024.88
2019-03-28T06:50:26.086Z,1024.91
2019-03-28T06:51:26.079Z,1024.93
2019-03-28T06:52:26.070Z,1024.87
2019-03-28T06:53:26.062Z,1024.88
2019-03-28T06:54:26.050Z,1024.91
2019-03-28T06:55:26.048Z,1024.92
2019-03-28T06:56:26.031Z,1024.94
2019-03-28T06:57:26.020Z,1024.97
2019-03-28T06:58:26.002Z,1024.93
2019-03-28T06:59:36.619Z,1024.98
2019-03-28T07:00:26.984Z,1024.98
2019-03-28T07:01:25.968Z,1024.99
2019-03-28T07:02:25.968Z,1024.99
2019-03-28T07:03:25.950Z,1025.01
2019-03-28T07:04:25.934Z,1025.01
2019-03-28T07:05:25.930Z,1025.00
2019-03-28T07:06:25.915Z,1025.01
2019-03-28T07:07:25.902Z,1025.00
2019-03-28T07:08:25.898Z,1025.01
2019-03-28T07:09:25.883Z,1025.03
2019-03-28T07:10:25.873Z,1025.03
2019-03-28T07:11:25.860Z,1025.02
2019-03-28T07:12:25.858Z,1025.05
2019-03-28T07:13:25.845Z,1025.05
2019-03-28T07:14:25.837Z,1025.02
2019-03-28T07:15:25.813Z,1025.07
2019-03-28T07:16:25.798Z,1025.06
2019-03-28T07:17:25.799Z,1025.06
2019-03-28T07:18:25.782Z,1025.07
2019-03-28T07:19:25.781Z,1025.12
2019-03-28T07:20:26.407Z,1025.08
2019-03-28T07:21:25.752Z,1025.06
2019-03-28T07:22:25.746Z,1025.04
2019-03-28T07:23:25.730Z,1025.09
2019-03-28T07:24:25.721Z,1025.07
2019-03-28T07:25:25.851Z,1025.10
2019-03-28T07:26:26.260Z,1025.07
2019-03-28T07:27:25.694Z,1025.11
2019-03-28T07:28:25.676Z,1025.12
2019-03-28T07:29:25.733Z,1025.09
2019-03-28T07:30:25.660Z,1025.14
2019-03-28T07:31:25.650Z,1025.15
2019-03-28T07:32:25.637Z,1025.13
2019-03-28T07:33:25.628Z,1025.19
2019-03-28T07:34:25.615Z,1025.18
2019-03-28T07:35:25.599Z,1025.19
2019-03-28T07:36:25.591Z,1025.23
2019-03-28T07:37:28.093Z,1025.20
2019-03-28T07:38:25.576Z,1025.25
2019-03-28T07:39:25.554Z,1025.21
2019-03-28T07:40:25.837Z,1025.20
2019-03-28T07:41:25.541Z,1025.22
2019-03-28T07:42:25.532Z,1025.24
2019-03-28T07:43:25.514Z,1025.25
2019-03-28T07:44:25.502Z,1025.24
2019-03-28T07:45:25.489Z,1025.28
2019-03-28T07:46:25.479Z,1025.34
2019-03-28T07:47:25.467Z,1025.35
2019-03-28T07:48:25.457Z,1025.34
2019-03-28T07:49:25.447Z,1025.37
2019-03-28T07:50:25.443Z,1025.36
2019-03-28T07:51:25.435Z,1025.40
2019-03-28T07:52:25.424Z,1025.32
2019-03-28T07:53:25.408Z,1025.31
2019-03-28T07:54:25.393Z,1025.33
2019-03-28T07:55:25.385Z,1025.31
2019-03-28T07:56:25.377Z,1025.32
2019-03-28T07:57:25.372Z,1025.32
2019-03-28T07:58:25.361Z,1025.36
2019-03-28T07:59:25.339Z,1025.34
2019-03-28T08:00:25.324Z,1025.36
2019-03-28T08:01:25.313Z,1025.37
2019-03-28T08:02:25.313Z,1025.36
2019-03-28T08:03:25.297Z,1025.37
2019-03-28T08:04:25.303Z,1025.32
2019-03-28T08:05:25.273Z,1025.36
2019-03-28T08:06:25.259Z,1025.39
2019-03-28T08:07:25.252Z,1025.39
2019-03-28T08:08:38.050Z,1025.42
2019-03-28T08:09:36.003Z,1025.37
2019-03-28T08:10:26.215Z,1025.37
2019-03-28T08:11:25.301Z,1025.31
2019-03-28T08:12:25.197Z,1025.35
2019-03-28T08:13:25.181Z,1025.30
2019-03-28T08:14:25.206Z,1025.35
2019-03-28T08:15:25.172Z,1025.38
2019-03-28T08:16:28.622Z,1025.37
2019-03-28T08:17:25.139Z,1025.41
2019-03-28T08:18:25.132Z,1025.35
2019-03-28T08:19:25.117Z,1025.39
2019-03-28T08:20:25.114Z,1025.37
2019-03-28T08:21:25.119Z,1025.41
2019-03-28T08:22:25.129Z,1025.39
2019-03-28T08:23:25.075Z,1025.40
2019-03-28T08:24:25.061Z,1025.42
2019-03-28T08:25:25.061Z,1025.45
2019-03-28T08:26:25.074Z,1025.46
2019-03-28T08:27:25.038Z,1025.47
2019-03-28T08:28:25.021Z,1025.45
2019-03-28T08:29:25.011Z,1025.44
2019-03-28T08:30:25.001Z,1025.49
2019-03-28T08:31:24.997Z,1025.49
2019-03-28T08:32:24.977Z,1025.47
2019-03-28T08:33:24.978Z,1025.45
2019-03-28T08:34:24.965Z,1025.49
2019-03-28T08:35:24.946Z,1025.52
2019-03-28T08:36:24.927Z,1025.45
2019-03-28T08:37:24.937Z,1025.46
2019-03-28T08:38:24.915Z,1025.51
2019-03-28T08:39:24.899Z,1025.52
2019-03-28T08:40:24.889Z,1025.49
2019-03-28T08:41:24.882Z,1025.51
2019-03-28T08:42:24.890Z,1025.53
2019-03-28T08:43:24.861Z,1025.57
2019-03-28T08:44:24.862Z,1025.50
2019-03-28T08:45:24.885Z,1025.63
2019-03-28T08:46:24.825Z,1025.58
2019-03-28T08:47:24.815Z,1025.60
2019-03-28T08:48:24.811Z,1025.65
2019-03-28T08:49:24.803Z,1025.62
2019-03-28T08:50:24.786Z,1025.59
2019-03-28T08:51:27.319Z,1025.60
2019-03-28T08:52:24.772Z,1025.60
2019-03-28T08:53:24.756Z,1025.60
2019-03-28T08:54:24.749Z,1025.60
2019-03-28T08:55:24.735Z,1025.65
2019-03-28T08:56:24.723Z,1025.67
2019-03-28T08:57:24.711Z,1025.68
2019-03-28T08:58:24.704Z,1025.64
2019-03-28T08:59:24.699Z,1025.68
2019-03-28T09:00:33.158Z,1025.77
2019-03-28T09:01:25.666Z,1025.72
2019-03-28T09:02:24.657Z,1025.74
2019-03-28T09:03:24.652Z,1025.82
2019-03-28T09:04:24.642Z,1025.76
2019-03-28T09:05:24.625Z,1025.76
2019-03-28T09:06:24.622Z,1025.80
2019-03-28T09:07:24.603Z,1025.78
2019-03-28T09:08:24.591Z,1025.75
2019-03-28T09:09:24.582Z,1025.76
2019-03-28T09:10:24.576Z,1025.75
2019-03-28T09:11:24.564Z,1025.74
2019-03-28T09:12:24.554Z,1025.74
2019-03-28T09:13:24.800Z,1025.73
2019-03-28T09:14:24.526Z,1025.73
2019-03-28T09:15:24.527Z,1025.69
2019-03-28T09:16:24.508Z,1025.70
2019-03-28T09:17:24.498Z,1025.68
2019-03-28T09:18:24.488Z,1025.70
2019-03-28T09:19:24.469Z,1025.71
2019-03-28T09:20:24.466Z,1025.69
2019-03-28T09:21:24.452Z,1025.73
2019-03-28T09:22:24.444Z,1025.73
2019-03-28T09:23:24.439Z,1025.67
2019-03-28T09:24:24.415Z,1025.70
2019-03-28T09:25:24.403Z,1025.68
2019-03-28T09:26:24.399Z,1025.66
2019-03-28T09:27:24.384Z,1025.68
2019-03-28T09:28:24.385Z,1025.70
2019-03-28T09:29:24.366Z,1025.74
2019-03-28T09:30:24.349Z,1025.71
2019-03-28T09:31:24.339Z,1025.70
2019-03-28T09:32:24.336Z,1025.68
2019-03-28T09:33:24.327Z,1025.67
2019-03-28T09:34:24.323Z,1025.65
2019-03-28T09:35:24.332Z,1025.66
2019-03-28T09:36:24.310Z,1025.68
2019-03-28T09:37:24.280Z,1025.69
2019-03-28T09:38:24.264Z,1025.64
2019-03-28T09:39:25.003Z,1025.64
2019-03-28T09:40:24.256Z,1025.67
2019-03-28T09:41:24.238Z,1025.65
2019-03-28T09:42:24.411Z,1025.68
2019-03-28T09:43:24.213Z,1025.71
2019-03-28T09:44:24.205Z,1025.68
2019-03-28T09:45:24.194Z,1025.75
2019-03-28T09:46:24.186Z,1025.72
2019-03-28T09:47:24.174Z,1025.72
2019-03-28T09:48:24.161Z,1025.71
2019-03-28T09:49:24.331Z,1025.68
2019-03-28T09:50:24.145Z,1025.66
2019-03-28T09:51:24.134Z,1025.60
2019-03-28T09:52:24.172Z,1025.61
2019-03-28T09:53:24.112Z,1025.61
2019-03-28T09:54:24.090Z,1025.56
2019-03-28T09:55:24.087Z,1025.61
2019-03-28T09:56:24.078Z,1025.59
2019-03-28T09:57:24.072Z,1025.62
2019-03-28T09:58:24.080Z,1025.59
2019-03-28T09:59:24.049Z,1025.58
2019-03-28T10:00:24.034Z,1025.61
2019-03-28T10:01:24.026Z,1025.57
2019-03-28T10:02:24.018Z,1025.63
2019-03-28T10:03:24.003Z,1025.59
2019-03-28T10:04:23.999Z,1025.56
2019-03-28T10:05:23.986Z,1025.57
2019-03-28T10:06:23.972Z,1025.55
2019-03-28T10:07:23.966Z,1025.56
2019-03-28T10:08:23.951Z,1025.60
2019-03-28T10:09:23.946Z,1025.58
2019-03-28T10:10:23.934Z,1025.59
2019-03-28T10:11:23.914Z,1025.59
2019-03-28T10:12:23.909Z,1025.63
2019-03-28T10:13:23.895Z,1025.58
2019-03-28T10:14:23.896Z,1025.59
2019-03-28T10:15:23.871Z,1025.62
2019-03-28T10:16:23.864Z,1025.65
2019-03-28T10:17:23.851Z,1025.67
2019-03-28T10:18:23.838Z,1025.64
2019-03-28T10:19:23.833Z,1025.68
2019-03-28T10:20:23.818Z,1025.67
2019-03-28T10:21:23.807Z,1025.70
2019-03-28T10:22:23.809Z,1025.70
2019-03-28T10:23:23.786Z,1025.69
2019-03-28T10:24:23.784Z,1025.74
2019-03-28T10:25:23.772Z,1025.71
2019-03-28T10:26:23.765Z,1025.71
2019-03-28T10:27:23.757Z,1025.75
2019-03-28T10:28:23.727Z,1025.74
2019-03-28T10:29:23.720Z,1025.71
2019-03-28T10:30:23.737Z,1025.77
2019-03-28T10:31:23.705Z,1025.76
2019-03-28T10:32:23.684Z,1025.75
2019-03-28T10:33:24.581Z,1025.76
2019-03-28T10:34:23.672Z,1025.77
2019-03-28T10:35:23.657Z,1025.75
2019-03-28T10:36:23.647Z,1025.76
2019-03-28T10:37:23.642Z,1025.77
2019-03-28T10:38:23.621Z,1025.80
2019-03-28T10:39:23.615Z,1025.76
2019-03-28T10:40:23.603Z,1025.70
2019-03-28T10:41:25.850Z,1025.76
2019-03-28T10:42:23.590Z,1025.73
2019-03-28T10:43:23.588Z,1025.74
2019-03-28T10:44:23.559Z,1025.71
2019-03-28T10:45:23.557Z,1025.68
2019-03-28T10:46:23.545Z,1025.76
2019-03-28T10:47:23.521Z,1025.80
2019-03-28T10:48:23.650Z,1025.79
2019-03-28T10:49:23.534Z,1025.83
2019-03-28T10:50:23.497Z,1025.80
2019-03-28T10:51:23.489Z,1025.80
2019-03-28T10:52:23.473Z,1025.80
2019-03-28T10:53:23.463Z,1025.83
2019-03-28T10:54:25.795Z,1025.80
2019-03-28T10:55:23.438Z,1025.77
2019-03-28T10:56:24.258Z,1025.82
2019-03-28T10:57:29.949Z,1025.81
2019-03-28T10:58:24.705Z,1025.85
2019-03-28T10:59:24.062Z,1025.85
2019-03-28T11:00:24.569Z,1025.80
2019-03-28T11:01:36.412Z,1025.74
2019-03-28T11:02:24.364Z,1025.80
2019-03-28T11:03:23.352Z,1025.79
2019-03-28T11:04:23.342Z,1025.77
2019-03-28T11:05:23.342Z,1025.79
2019-03-28T11:06:23.341Z,1025.82
2019-03-28T11:07:23.367Z,1025.83
2019-03-28T11:08:23.299Z,1025.78
2019-03-28T11:09:23.298Z,1025.85
2019-03-28T11:10:23.281Z,1025.82
2019-03-28T11:11:23.273Z,1025.81
2019-03-28T11:12:23.254Z,1025.81
2019-03-28T11:13:23.263Z,1025.81
2019-03-28T11:14:23.240Z,1025.85
2019-03-28T11:15:23.232Z,1025.82
2019-03-28T11:16:23.219Z,1025.88
2019-03-28T11:17:23.214Z,1025.88
2019-03-28T11:18:23.199Z,1025.92
2019-03-28T11:19:23.191Z,1025.96
2019-03-28T11:20:23.174Z,1025.93
2019-03-28T11:21:23.378Z,1025.95
2019-03-28T11:22:23.157Z,1025.91
2019-03-28T11:23:23.142Z,1025.98
2019-03-28T11:24:23.138Z,1025.93
2019-03-28T11:25:23.124Z,1025.92
2019-03-28T11:26:23.107Z,1025.91
2019-03-28T11:27:23.662Z,1025.93
2019-03-28T11:28:23.542Z,1025.93
2019-03-28T11:29:23.079Z,1025.97
2019-03-28T11:30:23.068Z,1025.94
2019-03-28T11:31:23.057Z,1025.97
2019-03-28T11:32:23.048Z,1025.96
2019-03-28T11:33:23.039Z,1025.98
2019-03-28T11:34:23.029Z,1025.99
2019-03-28T11:35:23.013Z,1026.02
2019-03-28T11:36:23.005Z,1026.02
2019-03-28T11:37:26.429Z,1026.01
2019-03-28T11:38:23.000Z,1026.01
2019-03-28T11:39:22.972Z,1026.02
2019-03-28T11:40:24.509Z,1026.04
2019-03-28T11:41:22.950Z,1026.05
2019-03-28T11:42:22.959Z,1026.05
2019-03-28T11:43:22.926Z,1026.05
2019-03-28T11:44:22.918Z,1026.05
2019-03-28T11:45:22.909Z,1026.07
2019-03-28T11:46:22.920Z,1026.07
2019-03-28T11:47:23.962Z,1026.09
2019-03-28T11:48:22.870Z,1026.15
2019-03-28T11:49:22.864Z,1026.12
2019-03-28T11:50:22.848Z,1026.14
2019-03-28T11:51:22.844Z,1026.15
2019-03-28T11:52:22.835Z,1026.16
2019-03-28T11:53:22.819Z,1026.15
2019-03-28T11:54:22.805Z,1026.19
2019-03-28T11:55:22.799Z,1026.18
2019-03-28T11:56:22.799Z,1026.18
2019-03-28T11:57:22.771Z,1026.20
2019-03-28T11:58:22.764Z,1026.21
2019-03-28T11:59:22.756Z,1026.22
2019-03-28T12:00:22.742Z,1026.23
2019-03-28T12:01:22.733Z,1026.24
2019-03-28T12:02:25.195Z,1026.24
2019-03-28T12:03:22.712Z,1026.22
2019-03-28T12:04:22.701Z,1026.23
2019-03-28T12:05:22.696Z,1026.24